Brownfield, Texas
Current Conditions -  °F | °C
As of 10:55 AM on Thursday 30 Oct 2014 (Local Time) from KGNC Reporting Station
Clear Clear  
Wind Chill: 69°   Ceiling: Unl
Heat Index: 69°   Visibility: 10mi
Dew Point: 46°   Wind: 14mph
Humidity: 43%   Direction: 300°WNW
Pressure: 30.18"   Gusts: 20mph
Location:  33.18°N, 102.27°W
Report Text: KGNC 301555Z AUTO 30012G17KT 10SM CLR 21/08 A3018 RMK AO2 T02060076
Loading
Personal Weather Stations






























Interactive Weather Map
Tropical Storm Tracking
New forecast layout! Learn more

10-Day Weather Forecast

Advertisements
Track Severe Weather on mobile